sensor_id;sensor_type;location;lat;lon;timestamp;P1;durP1;ratioP1;P2;durP2;ratioP2
34064;SDS011;20339;49.754;20.158;2022-11-21T00:01:50;15.20;;;9.40;;
34064;SDS011;20339;49.754;20.158;2022-11-21T00:04:22;13.50;;;9.10;;
34064;SDS011;20339;49.754;20.158;2022-11-21T00:06:53;14.60;;;9.70;;
34064;SDS011;20339;49.754;20.158;2022-11-21T00:09:24;14.40;;;9.00;;
34064;SDS011;20339;49.754;20.158;2022-11-21T00:11:56;15.70;;;10.10;;
34064;SDS011;20339;49.754;20.158;2022-11-21T00:14:27;14.00;;;9.10;;
34064;SDS011;20339;49.754;20.158;2022-11-21T00:16:59;13.80;;;9.80;;
34064;SDS011;20339;49.754;20.158;2022-11-21T00:19:30;13.40;;;9.80;;
34064;SDS011;20339;49.754;20.158;2022-11-21T00:22:01;15.40;;;10.30;;
34064;SDS011;20339;49.754;20.158;2022-11-21T00:24:32;15.10;;;9.20;;
34064;SDS011;20339;49.754;20.158;2022-11-21T00:27:05;13.70;;;8.50;;
34064;SDS011;20339;49.754;20.158;2022-11-21T00:29:36;13.20;;;8.50;;
34064;SDS011;20339;49.754;20.158;2022-11-21T00:32:07;13.90;;;9.30;;
34064;SDS011;20339;49.754;20.158;2022-11-21T00:34:39;13.30;;;8.60;;
34064;SDS011;20339;49.754;20.158;2022-11-21T00:37:10;13.90;;;8.70;;
34064;SDS011;20339;49.754;20.158;2022-11-21T00:39:41;14.60;;;8.50;;
34064;SDS011;20339;49.754;20.158;2022-11-21T00:42:12;13.60;;;8.20;;
34064;SDS011;20339;49.754;20.158;2022-11-21T00:44:43;13.70;;;8.10;;
34064;SDS011;20339;49.754;20.158;2022-11-21T00:47:15;11.80;;;7.60;;
34064;SDS011;20339;49.754;20.158;2022-11-21T00:49:46;11.00;;;6.80;;
34064;SDS011;20339;49.754;20.158;2022-11-21T00:52:17;10.00;;;6.80;;
34064;SDS011;20339;49.754;20.158;2022-11-21T00:54:48;11.20;;;7.20;;
34064;SDS011;20339;49.754;20.158;2022-11-21T00:57:20;12.30;;;7.80;;
34064;SDS011;20339;49.754;20.158;2022-11-21T00:59:51;13.40;;;8.20;;
34064;SDS011;20339;49.754;20.158;2022-11-21T01:02:22;12.00;;;7.60;;
34064;SDS011;20339;49.754;20.158;2022-11-21T01:04:53;12.90;;;7.90;;
34064;SDS011;20339;49.754;20.158;2022-11-21T01:07:24;11.50;;;7.70;;
34064;SDS011;20339;49.754;20.158;2022-11-21T01:09:55;12.10;;;8.50;;
34064;SDS011;20339;49.754;20.158;2022-11-21T01:12:29;13.40;;;8.30;;
34064;SDS011;20339;49.754;20.158;2022-11-21T01:15:01;12.10;;;7.40;;
34064;SDS011;20339;49.754;20.158;2022-11-21T01:17:32;12.40;;;8.00;;
34064;SDS011;20339;49.754;20.158;2022-11-21T01:20:07;11.90;;;7.50;;
34064;SDS011;20339;49.754;20.158;2022-11-21T01:22:41;11.40;;;6.90;;
34064;SDS011;20339;49.754;20.158;2022-11-21T01:25:13;10.70;;;6.80;;
34064;SDS011;20339;49.754;20.158;2022-11-21T01:27:44;10.70;;;7.20;;
34064;SDS011;20339;49.754;20.158;2022-11-21T01:30:15;11.60;;;7.70;;
34064;SDS011;20339;49.754;20.158;2022-11-21T01:32:48;10.30;;;6.90;;
34064;SDS011;20339;49.754;20.158;2022-11-21T01:35:19;11.30;;;7.20;;
34064;SDS011;20339;49.754;20.158;2022-11-21T01:37:50;10.50;;;6.80;;
34064;SDS011;20339;49.754;20.158;2022-11-21T01:40:21;10.50;;;6.90;;
34064;SDS011;20339;49.754;20.158;2022-11-21T01:42:53;9.80;;;6.70;;
34064;SDS011;20339;49.754;20.158;2022-11-21T01:49:09;9.40;;;5.90;;
34064;SDS011;20339;49.754;20.158;2022-11-21T01:51:43;10.10;;;6.20;;
34064;SDS011;20339;49.754;20.158;2022-11-21T01:54:19;9.70;;;6.20;;
34064;SDS011;20339;49.754;20.158;2022-11-21T01:56:56;9.90;;;6.20;;
34064;SDS011;20339;49.754;20.158;2022-11-21T02:02:07;10.80;;;7.10;;
34064;SDS011;20339;49.754;20.158;2022-11-21T02:04:45;11.40;;;6.60;;
34064;SDS011;20339;49.754;20.158;2022-11-21T02:07:19;10.70;;;7.40;;
34064;SDS011;20339;49.754;20.158;2022-11-21T02:09:53;12.40;;;8.90;;
34064;SDS011;20339;49.754;20.158;2022-11-21T02:12:28;11.00;;;6.20;;
34064;SDS011;20339;49.754;20.158;2022-11-21T02:15:02;12.50;;;8.30;;
34064;SDS011;20339;49.754;20.158;2022-11-21T02:17:36;12.90;;;9.00;;
34064;SDS011;20339;49.754;20.158;2022-11-21T02:20:08;12.30;;;8.40;;
34064;SDS011;20339;49.754;20.158;2022-11-21T02:22:43;11.90;;;8.50;;
34064;SDS011;20339;49.754;20.158;2022-11-21T02:25:23;13.50;;;8.10;;
34064;SDS011;20339;49.754;20.158;2022-11-21T02:27:56;10.90;;;7.60;;
34064;SDS011;20339;49.754;20.158;2022-11-21T02:30:30;12.60;;;7.70;;
34064;SDS011;20339;49.754;20.158;2022-11-21T02:33:04;10.30;;;6.70;;
34064;SDS011;20339;49.754;20.158;2022-11-21T02:35:36;10.10;;;6.60;;
34064;SDS011;20339;49.754;20.158;2022-11-21T02:38:10;11.10;;;7.60;;
34064;SDS011;20339;49.754;20.158;2022-11-21T02:40:49;13.40;;;7.70;;
34064;SDS011;20339;49.754;20.158;2022-11-21T02:43:23;13.30;;;8.80;;
34064;SDS011;20339;49.754;20.158;2022-11-21T02:45:57;12.30;;;7.60;;
34064;SDS011;20339;49.754;20.158;2022-11-21T02:48:29;10.30;;;6.70;;
34064;SDS011;20339;49.754;20.158;2022-11-21T02:51:00;13.10;;;8.00;;
34064;SDS011;20339;49.754;20.158;2022-11-21T02:53:31;12.10;;;7.70;;
34064;SDS011;20339;49.754;20.158;2022-11-21T02:56:02;12.70;;;8.00;;
34064;SDS011;20339;49.754;20.158;2022-11-21T02:58:34;12.80;;;8.20;;
34064;SDS011;20339;49.754;20.158;2022-11-21T03:01:05;11.30;;;7.20;;
34064;SDS011;20339;49.754;20.158;2022-11-21T03:03:36;10.90;;;6.70;;
34064;SDS011;20339;49.754;20.158;2022-11-21T03:06:10;11.10;;;7.10;;
34064;SDS011;20339;49.754;20.158;2022-11-21T03:08:41;11.70;;;7.40;;
34064;SDS011;20339;49.754;20.158;2022-11-21T03:11:13;11.90;;;7.80;;
34064;SDS011;20339;49.754;20.158;2022-11-21T03:13:44;14.60;;;8.90;;
34064;SDS011;20339;49.754;20.158;2022-11-21T03:16:17;14.20;;;9.30;;
34064;SDS011;20339;49.754;20.158;2022-11-21T03:18:48;12.50;;;9.60;;
34064;SDS011;20339;49.754;20.158;2022-11-21T03:21:20;12.30;;;8.70;;
34064;SDS011;20339;49.754;20.158;2022-11-21T03:23:54;13.10;;;7.90;;
34064;SDS011;20339;49.754;20.158;2022-11-21T03:26:25;14.30;;;8.40;;
34064;SDS011;20339;49.754;20.158;2022-11-21T03:28:56;12.40;;;8.10;;
34064;SDS011;20339;49.754;20.158;2022-11-21T03:31:28;11.00;;;8.00;;
34064;SDS011;20339;49.754;20.158;2022-11-21T03:33:59;10.20;;;7.00;;
34064;SDS011;20339;49.754;20.158;2022-11-21T03:36:30;10.50;;;7.00;;
34064;SDS011;20339;49.754;20.158;2022-11-21T03:39:02;12.90;;;7.90;;
34064;SDS011;20339;49.754;20.158;2022-11-21T03:41:34;12.40;;;7.90;;
34064;SDS011;20339;49.754;20.158;2022-11-21T03:44:06;11.20;;;7.50;;
34064;SDS011;20339;49.754;20.158;2022-11-21T03:46:39;13.30;;;8.10;;
34064;SDS011;20339;49.754;20.158;2022-11-21T03:49:11;11.50;;;7.60;;
34064;SDS011;20339;49.754;20.158;2022-11-21T03:51:43;12.20;;;8.60;;
34064;SDS011;20339;49.754;20.158;2022-11-21T03:54:15;14.20;;;10.00;;
34064;SDS011;20339;49.754;20.158;2022-11-21T03:56:46;11.90;;;8.30;;
34064;SDS011;20339;49.754;20.158;2022-11-21T03:59:18;10.10;;;7.40;;
34064;SDS011;20339;49.754;20.158;2022-11-21T04:01:49;12.10;;;7.90;;
34064;SDS011;20339;49.754;20.158;2022-11-21T04:04:20;12.10;;;7.90;;
34064;SDS011;20339;49.754;20.158;2022-11-21T04:06:52;11.30;;;7.60;;
34064;SDS011;20339;49.754;20.158;2022-11-21T04:09:25;11.60;;;8.40;;
34064;SDS011;20339;49.754;20.158;2022-11-21T04:11:57;11.80;;;8.80;;
34064;SDS011;20339;49.754;20.158;2022-11-21T04:14:30;13.00;;;8.70;;
34064;SDS011;20339;49.754;20.158;2022-11-21T04:17:01;11.40;;;7.80;;
34064;SDS011;20339;49.754;20.158;2022-11-21T04:19:33;10.70;;;7.50;;
34064;SDS011;20339;49.754;20.158;2022-11-21T04:22:04;12.00;;;7.70;;
34064;SDS011;20339;49.754;20.158;2022-11-21T04:24:35;12.50;;;8.20;;
34064;SDS011;20339;49.754;20.158;2022-11-21T04:27:07;12.20;;;8.20;;
34064;SDS011;20339;49.754;20.158;2022-11-21T04:29:38;9.70;;;6.20;;
34064;SDS011;20339;49.754;20.158;2022-11-21T04:32:09;10.20;;;7.30;;
34064;SDS011;20339;49.754;20.158;2022-11-21T04:34:40;12.00;;;7.70;;
34064;SDS011;20339;49.754;20.158;2022-11-21T04:37:12;12.40;;;7.60;;
34064;SDS011;20339;49.754;20.158;2022-11-21T04:40:22;13.30;;;8.20;;
34064;SDS011;20339;49.754;20.158;2022-11-21T04:42:53;11.80;;;8.10;;
34064;SDS011;20339;49.754;20.158;2022-11-21T04:45:24;13.40;;;8.10;;
34064;SDS011;20339;49.754;20.158;2022-11-21T04:47:55;15.10;;;8.80;;
34064;SDS011;20339;49.754;20.158;2022-11-21T04:50:28;12.10;;;8.00;;
34064;SDS011;20339;49.754;20.158;2022-11-21T04:52:59;12.70;;;8.40;;
34064;SDS011;20339;49.754;20.158;2022-11-21T04:55:31;14.50;;;7.60;;
34064;SDS011;20339;49.754;20.158;2022-11-21T04:58:02;12.10;;;7.40;;
34064;SDS011;20339;49.754;20.158;2022-11-21T05:00:33;14.60;;;9.40;;
34064;SDS011;20339;49.754;20.158;2022-11-21T05:03:05;15.70;;;9.60;;
34064;SDS011;20339;49.754;20.158;2022-11-21T05:05:37;15.80;;;9.70;;
34064;SDS011;20339;49.754;20.158;2022-11-21T05:08:11;14.60;;;9.90;;
34064;SDS011;20339;49.754;20.158;2022-11-21T05:10:43;14.80;;;9.60;;
34064;SDS011;20339;49.754;20.158;2022-11-21T05:13:40;17.00;;;10.30;;
34064;SDS011;20339;49.754;20.158;2022-11-21T05:16:14;13.10;;;9.00;;
34064;SDS011;20339;49.754;20.158;2022-11-21T05:18:45;16.50;;;11.00;;
34064;SDS011;20339;49.754;20.158;2022-11-21T05:21:16;15.00;;;10.30;;
34064;SDS011;20339;49.754;20.158;2022-11-21T05:23:47;14.20;;;9.30;;
34064;SDS011;20339;49.754;20.158;2022-11-21T05:26:25;15.10;;;9.20;;
34064;SDS011;20339;49.754;20.158;2022-11-21T05:28:59;13.40;;;7.50;;
34064;SDS011;20339;49.754;20.158;2022-11-21T05:31:31;15.80;;;10.20;;
34064;SDS011;20339;49.754;20.158;2022-11-21T05:34:02;12.80;;;8.20;;
34064;SDS011;20339;49.754;20.158;2022-11-21T05:36:33;14.40;;;9.00;;
34064;SDS011;20339;49.754;20.158;2022-11-21T05:39:04;11.80;;;8.10;;
34064;SDS011;20339;49.754;20.158;2022-11-21T05:41:36;13.20;;;8.50;;
34064;SDS011;20339;49.754;20.158;2022-11-21T05:44:08;11.70;;;7.70;;
34064;SDS011;20339;49.754;20.158;2022-11-21T05:46:40;12.70;;;8.00;;
34064;SDS011;20339;49.754;20.158;2022-11-21T05:49:11;15.10;;;10.20;;
34064;SDS011;20339;49.754;20.158;2022-11-21T05:51:45;40.40;;;23.70;;
34064;SDS011;20339;49.754;20.158;2022-11-21T05:54:16;23.00;;;13.90;;
34064;SDS011;20339;49.754;20.158;2022-11-21T05:56:47;13.60;;;9.40;;
34064;SDS011;20339;49.754;20.158;2022-11-21T05:59:18;11.30;;;8.10;;
34064;SDS011;20339;49.754;20.158;2022-11-21T06:01:50;12.20;;;8.50;;
34064;SDS011;20339;49.754;20.158;2022-11-21T06:04:38;12.60;;;8.40;;
34064;SDS011;20339;49.754;20.158;2022-11-21T06:07:10;13.60;;;8.30;;
34064;SDS011;20339;49.754;20.158;2022-11-21T06:09:43;13.30;;;8.80;;
34064;SDS011;20339;49.754;20.158;2022-11-21T06:12:15;13.50;;;9.50;;
34064;SDS011;20339;49.754;20.158;2022-11-21T06:14:46;11.70;;;8.50;;
34064;SDS011;20339;49.754;20.158;2022-11-21T06:17:17;10.70;;;7.10;;
34064;SDS011;20339;49.754;20.158;2022-11-21T06:19:48;10.60;;;7.30;;
34064;SDS011;20339;49.754;20.158;2022-11-21T06:22:20;12.30;;;8.70;;
34064;SDS011;20339;49.754;20.158;2022-11-21T06:24:58;11.80;;;6.70;;
34064;SDS011;20339;49.754;20.158;2022-11-21T06:27:33;14.20;;;8.80;;
34064;SDS011;20339;49.754;20.158;2022-11-21T06:30:08;11.00;;;7.90;;
34064;SDS011;20339;49.754;20.158;2022-11-21T06:32:40;12.80;;;8.10;;
34064;SDS011;20339;49.754;20.158;2022-11-21T06:35:12;12.20;;;7.70;;
34064;SDS011;20339;49.754;20.158;2022-11-21T06:37:43;13.00;;;8.10;;
34064;SDS011;20339;49.754;20.158;2022-11-21T06:40:14;13.30;;;8.80;;
34064;SDS011;20339;49.754;20.158;2022-11-21T06:42:46;12.80;;;8.60;;
34064;SDS011;20339;49.754;20.158;2022-11-21T06:45:17;13.30;;;8.80;;
34064;SDS011;20339;49.754;20.158;2022-11-21T06:47:48;11.60;;;8.30;;
34064;SDS011;20339;49.754;20.158;2022-11-21T06:50:19;12.40;;;7.90;;
34064;SDS011;20339;49.754;20.158;2022-11-21T06:52:51;11.70;;;8.10;;
34064;SDS011;20339;49.754;20.158;2022-11-21T06:55:24;11.80;;;8.00;;
34064;SDS011;20339;49.754;20.158;2022-11-21T06:57:57;10.50;;;7.50;;
34064;SDS011;20339;49.754;20.158;2022-11-21T07:00:29;9.60;;;6.60;;
34064;SDS011;20339;49.754;20.158;2022-11-21T07:03:00;13.60;;;9.00;;
34064;SDS011;20339;49.754;20.158;2022-11-21T07:05:32;13.70;;;9.10;;
34064;SDS011;20339;49.754;20.158;2022-11-21T07:08:05;13.40;;;8.70;;
34064;SDS011;20339;49.754;20.158;2022-11-21T07:10:36;11.00;;;7.40;;
34064;SDS011;20339;49.754;20.158;2022-11-21T07:13:09;11.90;;;8.00;;
34064;SDS011;20339;49.754;20.158;2022-11-21T07:15:50;10.30;;;6.40;;
34064;SDS011;20339;49.754;20.158;2022-11-21T07:18:22;12.00;;;8.80;;
34064;SDS011;20339;49.754;20.158;2022-11-21T07:20:57;12.50;;;8.80;;
34064;SDS011;20339;49.754;20.158;2022-11-21T07:23:32;12.20;;;8.70;;
34064;SDS011;20339;49.754;20.158;2022-11-21T07:26:05;11.90;;;8.10;;
34064;SDS011;20339;49.754;20.158;2022-11-21T07:28:36;12.50;;;8.50;;
34064;SDS011;20339;49.754;20.158;2022-11-21T07:31:09;10.70;;;8.00;;
34064;SDS011;20339;49.754;20.158;2022-11-21T07:33:42;10.90;;;7.40;;
34064;SDS011;20339;49.754;20.158;2022-11-21T07:36:15;12.40;;;8.00;;
34064;SDS011;20339;49.754;20.158;2022-11-21T07:38:46;10.60;;;7.00;;
34064;SDS011;20339;49.754;20.158;2022-11-21T07:41:17;10.40;;;7.00;;
34064;SDS011;20339;49.754;20.158;2022-11-21T07:43:48;10.20;;;7.00;;
34064;SDS011;20339;49.754;20.158;2022-11-21T07:46:20;15.00;;;10.80;;
34064;SDS011;20339;49.754;20.158;2022-11-21T07:48:52;8.90;;;5.60;;
34064;SDS011;20339;49.754;20.158;2022-11-21T07:51:24;11.10;;;7.20;;
34064;SDS011;20339;49.754;20.158;2022-11-21T07:53:55;9.90;;;6.30;;
34064;SDS011;20339;49.754;20.158;2022-11-21T07:56:26;10.30;;;7.10;;
34064;SDS011;20339;49.754;20.158;2022-11-21T07:58:57;9.40;;;6.40;;
34064;SDS011;20339;49.754;20.158;2022-11-21T08:01:28;11.40;;;8.40;;
34064;SDS011;20339;49.754;20.158;2022-11-21T08:04:00;10.30;;;7.20;;
34064;SDS011;20339;49.754;20.158;2022-11-21T08:06:31;9.20;;;6.20;;
34064;SDS011;20339;49.754;20.158;2022-11-21T08:09:04;11.60;;;7.60;;
34064;SDS011;20339;49.754;20.158;2022-11-21T08:11:36;8.40;;;5.70;;
34064;SDS011;20339;49.754;20.158;2022-11-21T08:14:09;10.70;;;7.40;;
34064;SDS011;20339;49.754;20.158;2022-11-21T08:16:41;12.20;;;7.00;;
34064;SDS011;20339;49.754;20.158;2022-11-21T08:19:14;11.00;;;7.40;;
34064;SDS011;20339;49.754;20.158;2022-11-21T08:21:46;8.60;;;5.70;;
34064;SDS011;20339;49.754;20.158;2022-11-21T08:24:17;9.90;;;6.50;;
34064;SDS011;20339;49.754;20.158;2022-11-21T08:26:48;7.90;;;4.90;;
34064;SDS011;20339;49.754;20.158;2022-11-21T08:29:19;10.90;;;7.50;;
34064;SDS011;20339;49.754;20.158;2022-11-21T08:31:51;10.20;;;6.50;;
34064;SDS011;20339;49.754;20.158;2022-11-21T08:34:22;10.90;;;7.10;;
34064;SDS011;20339;49.754;20.158;2022-11-21T08:36:54;7.80;;;4.80;;
34064;SDS011;20339;49.754;20.158;2022-11-21T08:39:27;9.00;;;6.00;;
34064;SDS011;20339;49.754;20.158;2022-11-21T08:41:59;9.40;;;6.00;;
34064;SDS011;20339;49.754;20.158;2022-11-21T08:44:33;11.30;;;6.80;;
34064;SDS011;20339;49.754;20.158;2022-11-21T08:47:04;8.40;;;5.70;;
34064;SDS011;20339;49.754;20.158;2022-11-21T08:49:36;7.30;;;4.10;;
34064;SDS011;20339;49.754;20.158;2022-11-21T08:52:08;8.60;;;4.90;;
34064;SDS011;20339;49.754;20.158;2022-11-21T08:54:40;6.60;;;4.10;;
34064;SDS011;20339;49.754;20.158;2022-11-21T08:57:12;9.70;;;6.30;;
34064;SDS011;20339;49.754;20.158;2022-11-21T08:59:43;8.50;;;5.00;;
34064;SDS011;20339;49.754;20.158;2022-11-21T09:02:14;8.50;;;5.10;;
34064;SDS011;20339;49.754;20.158;2022-11-21T09:04:48;9.40;;;6.30;;
34064;SDS011;20339;49.754;20.158;2022-11-21T09:07:20;6.90;;;4.30;;
34064;SDS011;20339;49.754;20.158;2022-11-21T09:09:51;8.00;;;5.20;;
34064;SDS011;20339;49.754;20.158;2022-11-21T09:12:22;6.00;;;4.50;;
34064;SDS011;20339;49.754;20.158;2022-11-21T09:14:54;9.20;;;6.00;;
34064;SDS011;20339;49.754;20.158;2022-11-21T09:17:43;9.40;;;6.10;;
34064;SDS011;20339;49.754;20.158;2022-11-21T09:23:07;9.60;;;6.40;;
34064;SDS011;20339;49.754;20.158;2022-11-21T09:25:40;8.40;;;5.70;;
34064;SDS011;20339;49.754;20.158;2022-11-21T09:28:12;8.00;;;5.80;;
34064;SDS011;20339;49.754;20.158;2022-11-21T09:30:44;8.70;;;5.70;;
34064;SDS011;20339;49.754;20.158;2022-11-21T09:33:15;9.40;;;5.90;;
34064;SDS011;20339;49.754;20.158;2022-11-21T09:35:47;10.60;;;7.20;;
34064;SDS011;20339;49.754;20.158;2022-11-21T09:38:18;10.30;;;6.20;;
34064;SDS011;20339;49.754;20.158;2022-11-21T09:40:49;10.10;;;5.80;;
34064;SDS011;20339;49.754;20.158;2022-11-21T09:43:34;8.70;;;6.00;;
34064;SDS011;20339;49.754;20.158;2022-11-21T09:46:18;8.70;;;6.00;;
34064;SDS011;20339;49.754;20.158;2022-11-21T09:48:55;8.00;;;5.70;;
34064;SDS011;20339;49.754;20.158;2022-11-21T09:51:29;7.80;;;5.20;;
34064;SDS011;20339;49.754;20.158;2022-11-21T09:54:04;8.30;;;5.90;;
34064;SDS011;20339;49.754;20.158;2022-11-21T09:56:45;9.40;;;5.90;;
34064;SDS011;20339;49.754;20.158;2022-11-21T09:59:31;9.20;;;5.70;;
34064;SDS011;20339;49.754;20.158;2022-11-21T10:02:09;8.60;;;5.20;;
34064;SDS011;20339;49.754;20.158;2022-11-21T10:07:17;7.20;;;4.80;;
34064;SDS011;20339;49.754;20.158;2022-11-21T10:09:59;6.30;;;4.10;;
34064;SDS011;20339;49.754;20.158;2022-11-21T10:12:39;8.40;;;4.60;;
34064;SDS011;20339;49.754;20.158;2022-11-21T10:15:22;8.50;;;4.90;;
34064;SDS011;20339;49.754;20.158;2022-11-21T10:18:06;7.80;;;4.40;;
34064;SDS011;20339;49.754;20.158;2022-11-21T10:20:54;8.30;;;4.90;;
34064;SDS011;20339;49.754;20.158;2022-11-21T10:23:37;9.10;;;5.50;;
34064;SDS011;20339;49.754;20.158;2022-11-21T10:26:25;7.50;;;4.80;;
34064;SDS011;20339;49.754;20.158;2022-11-21T10:29:11;7.90;;;4.30;;
34064;SDS011;20339;49.754;20.158;2022-11-21T10:31:48;9.90;;;5.90;;
34064;SDS011;20339;49.754;20.158;2022-11-21T10:34:23;10.50;;;6.70;;
34064;SDS011;20339;49.754;20.158;2022-11-21T10:36:59;9.10;;;5.20;;
34064;SDS011;20339;49.754;20.158;2022-11-21T10:39:43;8.10;;;5.30;;
34064;SDS011;20339;49.754;20.158;2022-11-21T10:42:21;8.40;;;5.50;;
34064;SDS011;20339;49.754;20.158;2022-11-21T10:45:01;8.00;;;4.60;;
34064;SDS011;20339;49.754;20.158;2022-11-21T10:47:47;9.90;;;5.30;;
34064;SDS011;20339;49.754;20.158;2022-11-21T10:50:27;7.40;;;5.00;;
34064;SDS011;20339;49.754;20.158;2022-11-21T10:53:10;7.50;;;4.90;;
34064;SDS011;20339;49.754;20.158;2022-11-21T10:56:04;8.80;;;5.80;;
34064;SDS011;20339;49.754;20.158;2022-11-21T10:58:41;9.10;;;6.20;;
34064;SDS011;20339;49.754;20.158;2022-11-21T11:01:22;6.90;;;4.30;;
34064;SDS011;20339;49.754;20.158;2022-11-21T11:04:14;8.90;;;4.90;;
34064;SDS011;20339;49.754;20.158;2022-11-21T11:06:47;9.70;;;5.80;;
34064;SDS011;20339;49.754;20.158;2022-11-21T11:09:25;9.70;;;6.20;;
34064;SDS011;20339;49.754;20.158;2022-11-21T11:15:21;9.00;;;6.30;;
34064;SDS011;20339;49.754;20.158;2022-11-21T11:17:56;7.80;;;4.40;;
34064;SDS011;20339;49.754;20.158;2022-11-21T11:20:35;8.70;;;5.40;;
34064;SDS011;20339;49.754;20.158;2022-11-21T11:26:01;8.30;;;5.70;;
34064;SDS011;20339;49.754;20.158;2022-11-21T11:28:46;8.90;;;5.60;;
34064;SDS011;20339;49.754;20.158;2022-11-21T11:31:17;8.90;;;5.00;;
34064;SDS011;20339;49.754;20.158;2022-11-21T11:33:52;9.60;;;6.00;;
34064;SDS011;20339;49.754;20.158;2022-11-21T11:36:27;9.70;;;6.60;;
34064;SDS011;20339;49.754;20.158;2022-11-21T11:39:11;8.70;;;6.00;;
34064;SDS011;20339;49.754;20.158;2022-11-21T11:45:32;11.10;;;6.00;;
34064;SDS011;20339;49.754;20.158;2022-11-21T11:48:35;11.10;;;6.80;;
34064;SDS011;20339;49.754;20.158;2022-11-21T11:51:08;9.60;;;6.40;;
34064;SDS011;20339;49.754;20.158;2022-11-21T11:53:49;9.90;;;6.00;;
34064;SDS011;20339;49.754;20.158;2022-11-21T11:56:24;9.30;;;6.00;;
34064;SDS011;20339;49.754;20.158;2022-11-21T11:59:02;9.90;;;6.80;;
34064;SDS011;20339;49.754;20.158;2022-11-21T12:01:40;10.30;;;6.30;;
34064;SDS011;20339;49.754;20.158;2022-11-21T12:04:16;11.70;;;6.60;;
34064;SDS011;20339;49.754;20.158;2022-11-21T12:06:51;13.60;;;7.70;;
34064;SDS011;20339;49.754;20.158;2022-11-21T12:09:29;10.80;;;5.80;;
34064;SDS011;20339;49.754;20.158;2022-11-21T12:12:08;12.20;;;7.00;;
34064;SDS011;20339;49.754;20.158;2022-11-21T12:14:49;12.90;;;7.80;;
34064;SDS011;20339;49.754;20.158;2022-11-21T12:17:47;11.30;;;6.90;;
34064;SDS011;20339;49.754;20.158;2022-11-21T12:20:24;13.00;;;7.80;;
34064;SDS011;20339;49.754;20.158;2022-11-21T12:23:01;11.70;;;8.30;;
34064;SDS011;20339;49.754;20.158;2022-11-21T12:25:35;12.50;;;7.60;;
34064;SDS011;20339;49.754;20.158;2022-11-21T12:28:17;13.00;;;7.90;;
34064;SDS011;20339;49.754;20.158;2022-11-21T12:30:57;11.90;;;7.60;;
34064;SDS011;20339;49.754;20.158;2022-11-21T12:33:39;12.10;;;7.90;;
34064;SDS011;20339;49.754;20.158;2022-11-21T12:36:20;11.50;;;7.30;;
34064;SDS011;20339;49.754;20.158;2022-11-21T12:39:06;12.20;;;8.20;;
34064;SDS011;20339;49.754;20.158;2022-11-21T12:41:56;13.90;;;8.70;;
34064;SDS011;20339;49.754;20.158;2022-11-21T12:44:56;12.20;;;8.20;;
34064;SDS011;20339;49.754;20.158;2022-11-21T12:47:51;10.90;;;7.20;;
34064;SDS011;20339;49.754;20.158;2022-11-21T12:51:16;13.60;;;8.60;;
34064;SDS011;20339;49.754;20.158;2022-11-21T12:54:25;13.90;;;7.80;;
34064;SDS011;20339;49.754;20.158;2022-11-21T12:57:18;9.10;;;6.20;;
34064;SDS011;20339;49.754;20.158;2022-11-21T12:59:59;9.80;;;6.20;;
34064;SDS011;20339;49.754;20.158;2022-11-21T13:02:42;7.90;;;4.90;;
34064;SDS011;20339;49.754;20.158;2022-11-21T13:05:28;10.00;;;6.40;;
34064;SDS011;20339;49.754;20.158;2022-11-21T13:08:07;9.60;;;5.90;;
34064;SDS011;20339;49.754;20.158;2022-11-21T13:10:42;8.20;;;5.10;;
34064;SDS011;20339;49.754;20.158;2022-11-21T13:13:42;9.60;;;4.60;;
34064;SDS011;20339;49.754;20.158;2022-11-21T13:16:17;6.30;;;3.60;;
34064;SDS011;20339;49.754;20.158;2022-11-21T13:19:09;7.20;;;4.40;;
34064;SDS011;20339;49.754;20.158;2022-11-21T13:21:48;7.80;;;5.00;;
34064;SDS011;20339;49.754;20.158;2022-11-21T13:27:28;8.10;;;5.70;;
34064;SDS011;20339;49.754;20.158;2022-11-21T13:32:53;8.30;;;5.40;;
34064;SDS011;20339;49.754;20.158;2022-11-21T13:38:34;10.50;;;6.80;;
34064;SDS011;20339;49.754;20.158;2022-11-21T13:48:07;11.70;;;6.70;;
34064;SDS011;20339;49.754;20.158;2022-11-21T13:51:00;11.30;;;7.70;;
34064;SDS011;20339;49.754;20.158;2022-11-21T13:53:57;11.80;;;7.80;;
34064;SDS011;20339;49.754;20.158;2022-11-21T13:56:52;12.60;;;7.70;;
34064;SDS011;20339;49.754;20.158;2022-11-21T13:59:40;10.90;;;6.70;;
34064;SDS011;20339;49.754;20.158;2022-11-21T14:02:36;9.90;;;6.80;;
34064;SDS011;20339;49.754;20.158;2022-11-21T14:05:26;11.60;;;7.20;;
34064;SDS011;20339;49.754;20.158;2022-11-21T14:08:15;10.20;;;7.10;;
34064;SDS011;20339;49.754;20.158;2022-11-21T14:10:49;11.50;;;7.60;;
34064;SDS011;20339;49.754;20.158;2022-11-21T14:13:24;11.50;;;7.80;;
34064;SDS011;20339;49.754;20.158;2022-11-21T14:16:12;11.80;;;8.10;;
34064;SDS011;20339;49.754;20.158;2022-11-21T14:18:56;11.90;;;7.00;;
34064;SDS011;20339;49.754;20.158;2022-11-21T14:21:29;13.30;;;9.10;;
34064;SDS011;20339;49.754;20.158;2022-11-21T14:24:10;9.90;;;5.90;;
34064;SDS011;20339;49.754;20.158;2022-11-21T14:26:45;11.80;;;6.70;;
34064;SDS011;20339;49.754;20.158;2022-11-21T14:29:24;14.00;;;8.90;;
34064;SDS011;20339;49.754;20.158;2022-11-21T14:31:57;13.40;;;8.10;;
34064;SDS011;20339;49.754;20.158;2022-11-21T14:34:28;17.60;;;10.70;;
34064;SDS011;20339;49.754;20.158;2022-11-21T14:37:03;13.20;;;9.60;;
34064;SDS011;20339;49.754;20.158;2022-11-21T14:39:38;14.50;;;9.20;;
34064;SDS011;20339;49.754;20.158;2022-11-21T14:42:12;15.50;;;8.60;;
34064;SDS011;20339;49.754;20.158;2022-11-21T14:44:45;16.30;;;10.80;;
34064;SDS011;20339;49.754;20.158;2022-11-21T14:47:33;13.40;;;9.10;;
34064;SDS011;20339;49.754;20.158;2022-11-21T14:50:21;12.50;;;7.20;;
34064;SDS011;20339;49.754;20.158;2022-11-21T14:52:55;17.00;;;10.40;;
34064;SDS011;20339;49.754;20.158;2022-11-21T14:55:28;14.40;;;9.30;;
34064;SDS011;20339;49.754;20.158;2022-11-21T14:58:01;16.20;;;11.00;;
34064;SDS011;20339;49.754;20.158;2022-11-21T15:00:34;16.30;;;10.20;;
34064;SDS011;20339;49.754;20.158;2022-11-21T15:03:15;15.30;;;10.00;;
34064;SDS011;20339;49.754;20.158;2022-11-21T15:05:56;18.00;;;10.30;;
34064;SDS011;20339;49.754;20.158;2022-11-21T15:08:29;15.20;;;10.30;;
34064;SDS011;20339;49.754;20.158;2022-11-21T15:11:01;15.70;;;11.20;;
34064;SDS011;20339;49.754;20.158;2022-11-21T15:13:33;14.60;;;8.20;;
34064;SDS011;20339;49.754;20.158;2022-11-21T15:16:06;16.20;;;9.20;;
34064;SDS011;20339;49.754;20.158;2022-11-21T15:18:38;11.10;;;7.00;;
34064;SDS011;20339;49.754;20.158;2022-11-21T15:21:13;17.00;;;9.50;;
34064;SDS011;20339;49.754;20.158;2022-11-21T15:23:46;14.40;;;10.20;;
34064;SDS011;20339;49.754;20.158;2022-11-21T15:26:28;12.30;;;7.30;;
34064;SDS011;20339;49.754;20.158;2022-11-21T15:29:15;16.50;;;9.90;;
34064;SDS011;20339;49.754;20.158;2022-11-21T15:34:38;14.40;;;9.90;;
34064;SDS011;20339;49.754;20.158;2022-11-21T15:37:14;13.00;;;7.80;;
34064;SDS011;20339;49.754;20.158;2022-11-21T15:39:48;15.50;;;9.80;;
34064;SDS011;20339;49.754;20.158;2022-11-21T15:45:24;14.90;;;9.50;;
34064;SDS011;20339;49.754;20.158;2022-11-21T15:47:56;13.40;;;8.10;;
34064;SDS011;20339;49.754;20.158;2022-11-21T15:50:30;14.70;;;10.10;;
34064;SDS011;20339;49.754;20.158;2022-11-21T15:53:02;16.20;;;9.40;;
34064;SDS011;20339;49.754;20.158;2022-11-21T15:55:33;19.60;;;10.90;;